Historique des mesures à Cassis (13260), France
Quotidien Résumé Fevrier 18, 2017 Unités:  US    Métrique   Métrique/US
« Précédent (Jour)
Suivant (Jour) »
Quotidien Hebdomadaire Mensuel Annuel Période au choix
  Maximum: Minimum: Moyenne:
Température: 32 °F 49.3 °F 53.8 °F
Point de rosée: 32 °F 38.5 °F 43 °F
Humidité: Humidity % 56 % 63 %
Vitesse du vent: WindSpeedKMH mph 0.0 mph 0.2 mph
Rafales: WindSpeedGustKMH mph - -
Vent:- - SE
Pression: 0 in 30 in -
Précipitations: 0 in    
Historical Graphs
 
 
Mesures pour : Fevrier 18, 2017
Heure Temperature Point de rosée Pression Vent Vitesse du vent Rafales Humidité Pluie (par heure) Conditions
32 °F 32 °F 0 in Calm     Humidity % 0 in SoftwareType W/m2
00:11 55.9 °F 40.5 °F 30.1 in Calm     56 % 0 in open2300-1.11 W/m2
01:10 54.5 °F 39.9 °F 30.1 in Calm     58 % 0 in open2300-1.11 W/m2
02:11 52.7 °F 38.7 °F 30.1 in Calm   2.1 mph 59 % 0 in open2300-1.11 W/m2
03:10 53.2 °F 40.1 °F 30 in Calm     61 % 0 in open2300-1.11 W/m2
04:11 51.1 °F 40.8 °F 30 in Calm   1.8 mph 68 % 0 in open2300-1.11 W/m2
05:10 50.4 °F 39 °F 30 in Calm     65 % 0 in open2300-1.11 W/m2
06:11 50.2 °F 38.8 °F 30 in Calm   2.1 mph 65 % 0 in open2300-1.11 W/m2
07:10 49.8 °F 38.5 °F 30.1 in Calm     65 % 0 in open2300-1.11 W/m2
08:11 49.3 °F 38.8 °F 30.1 in ENE 1.8 mph 1.8 mph 67 % 0 in open2300-1.11 W/m2
09:10 51.8 °F 42.1 °F 30.1 in Calm     69 % 0 in open2300-1.11 W/m2
10:11 55.2 °F 45.3 °F 30.1 in Calm     69 % 0 in open2300-1.11 W/m2
11:10 58.1 °F 47.1 °F 30.1 in Calm   2.1 mph 67 % 0 in open2300-1.11 W/m2
12:11 59.7 °F 47.8 °F 30.1 in South 1.8 mph 1.8 mph 65 % 0 in open2300-1.11 W/m2
13:10 60.4 °F 48.2 °F 30.1 in Calm   7.2 mph 64 % 0 in open2300-1.11 W/m2
14:11 61.3 °F 48.7 °F 30.1 in Calm   7.6 mph 63 % 0 in open2300-1.11 W/m2
16:11 61.2 °F 49.3 °F 30.1 in Calm   2.9 mph 65 % 0 in open2300-1.11 W/m2
17:10 60.1 °F 49.1 °F 30.1 in Calm     67 % 0 in open2300-1.11 W/m2
18:11 58.3 °F 47.7 °F 30.1 in Calm     68 % 0 in open2300-1.11 W/m2
19:10 55.2 °F 46.4 °F 30.1 in Calm     72 % 0 in open2300-1.11 W/m2
20:11 54 °F 44.1 °F 30.1 in Calm     69 % 0 in open2300-1.11 W/m2
21:10 53.2 °F 42.4 °F 30.1 in Calm     67 % 0 in open2300-1.11 W/m2
22:11 52.5 °F 42.6 °F 30.1 in Calm     69 % 0 in open2300-1.11 W/m2
23:10 52.3 °F 43 °F 30.1 in Calm     70 % 0 in open2300-1.11 W/m2
Observations météo à CASSIS
WU-History script by Weather Underground - 1 mb